Time;durP1;ratioP1;P1;durP2;ratioP2;P2;SDS_P1;SDS_P2;PMS_P1;PMS_P2;Temp;Humidity;BMP_temperature;BMP_pressure;BME280_temperature;BME280_humidity;BME280_pressure;Samples;Min_cycle;Max_cycle;Signal;HPM_P1;HPM_P2
2022/06/09 00:00:45;;;;;;;3.57;2.07;;;21.00;90.60;;;;;;5091386;28;20870;-73
2022/06/09 00:03:19;;;;;;;4.20;2.27;;;21.00;90.40;;;;;;5074115;28;20216;-73
2022/06/09 00:05:46;;;;;;;9.77;2.20;;;21.00;90.30;;;;;;5075235;28;20224;-73
2022/06/09 00:08:15;;;;;;;3.57;2.60;;;21.00;90.30;;;;;;5073760;28;20620;-73
2022/06/09 00:10:50;;;;;;;4.57;2.03;;;21.00;90.40;;;;;;5071965;28;20222;-73
2022/06/09 00:13:17;;;;;;;8.50;2.67;;;21.00;90.50;;;;;;5068888;28;20210;-73
2022/06/09 00:15:44;;;;;;;4.57;2.27;;;21.00;90.50;;;;;;5086326;28;20197;-72
2022/06/09 00:18:11;;;;;;;5.73;2.40;;;21.00;90.40;;;;;;5076890;28;20764;-72
2022/06/09 00:20:38;;;;;;;4.23;2.77;;;21.00;90.30;;;;;;5078292;28;20217;-73
2022/06/09 00:23:05;;;;;;;5.57;2.80;;;21.00;90.40;;;;;;5083370;28;20205;-73
2022/06/09 00:25:35;;;;;;;2.93;2.37;;;21.00;90.40;;;;;;5086248;28;20641;-73
2022/06/09 00:28:03;;;;;;;3.07;2.53;;;21.00;90.30;;;;;;5090834;28;20660;-73
2022/06/09 00:30:30;;;;;;;2.67;2.13;;;20.90;90.30;;;;;;5075848;28;20274;-73
2022/06/09 00:32:57;;;;;;;4.53;2.70;;;20.80;90.50;;;;;;5077589;28;20208;-73
2022/06/09 00:35:24;;;;;;;4.00;2.30;;;20.80;90.30;;;;;;5086377;28;20206;-72
2022/06/09 00:37:51;;;;;;;10.03;2.43;;;20.70;90.30;;;;;;5066812;28;20209;-72
2022/06/09 00:40:19;;;;;;;2.93;2.50;;;20.70;90.60;;;;;;5085186;28;20189;-72
2022/06/09 00:42:46;;;;;;;5.77;2.33;;;20.60;90.80;;;;;;5080428;28;20205;-72
2022/06/09 00:45:28;;;;;;;3.53;2.70;;;20.60;91.00;;;;;;5077046;28;20205;-74
2022/06/09 00:48:19;;;;;;;2.97;2.40;;;20.50;91.10;;;;;;5076871;28;20232;-72
2022/06/09 00:50:51;;;;;;;5.67;2.83;;;20.50;91.20;;;;;;5068782;28;20217;-72
2022/06/09 00:53:23;;;;;;;6.53;3.40;;;20.50;91.30;;;;;;5088625;28;20196;-72
2022/06/09 00:55:52;;;;;;;3.03;2.83;;;20.50;91.30;;;;;;5083036;28;20322;-72
2022/06/09 00:58:23;;;;;;;5.27;3.20;;;20.40;91.30;;;;;;5076923;28;20211;-73
2022/06/09 01:00:56;;;;;;;7.97;2.80;;;20.40;91.40;;;;;;5090097;28;20199;-73
2022/06/09 01:03:30;;;;;;;5.40;2.67;;;20.30;91.40;;;;;;5077775;28;20209;-73
2022/06/09 01:06:07;;;;;;;4.63;2.67;;;20.30;91.50;;;;;;5075008;28;20299;-73
2022/06/09 01:08:40;;;;;;;4.77;2.73;;;20.30;91.60;;;;;;5073971;28;20270;-73
2022/06/09 01:11:07;;;;;;;3.63;2.90;;;20.30;91.70;;;;;;5089143;28;20205;-72
2022/06/09 01:13:34;;;;;;;6.33;3.60;;;20.30;91.60;;;;;;5074804;28;20215;-73
2022/06/09 01:16:36;;;;;;;6.03;3.33;;;20.30;91.60;;;;;;5088989;28;20219;-73
2022/06/09 01:19:40;;;;;;;3.80;3.07;;;20.30;91.70;;;;;;5067938;28;20213;-72
2022/06/09 01:22:48;;;;;;;3.87;3.40;;;20.20;91.70;;;;;;5067319;28;20218;-72
2022/06/09 01:25:27;;;;;;;4.27;3.30;;;20.30;91.80;;;;;;5045213;28;20231;-72
2022/06/09 01:28:06;;;;;;;5.07;3.10;;;20.30;91.80;;;;;;5068017;28;20227;-72
2022/06/09 01:30:56;;;;;;;8.53;3.80;;;20.30;91.80;;;;;;5082137;28;20207;-72
2022/06/09 01:33:57;;;;;;;6.90;3.03;;;20.30;91.90;;;;;;5061892;28;20198;-72
2022/06/09 01:36:46;;;;;;;9.83;3.20;;;20.40;91.90;;;;;;5072237;28;20200;-72
2022/06/09 01:39:13;;;;;;;7.17;3.93;;;20.40;92.00;;;;;;5084330;28;20555;-72
2022/06/09 01:41:49;;;;;;;6.37;3.97;;;20.40;91.90;;;;;;5087650;28;20204;-72
2022/06/09 01:44:18;;;;;;;9.10;3.17;;;20.40;92.10;;;;;;5089258;28;20207;-72
2022/06/09 01:46:47;;;;;;;6.70;2.87;;;20.50;92.10;;;;;;5087242;28;20563;-72
2022/06/09 01:49:22;;;;;;;6.20;3.77;;;20.50;92.00;;;;;;5072903;28;20203;-72
2022/06/09 01:51:51;;;;;;;4.97;3.20;;;20.50;92.00;;;;;;5067950;28;20207;-72
2022/06/09 01:54:32;;;;;;;6.17;3.10;;;20.50;92.30;;;;;;5087609;28;20264;-72
2022/06/09 01:57:08;;;;;;;6.70;3.53;;;20.50;92.00;;;;;;5069983;28;20718;-72
2022/06/09 01:59:43;;;;;;;8.53;3.53;;;20.50;92.00;;;;;;5086088;28;20285;-72
2022/06/09 02:02:18;;;;;;;6.97;2.67;;;20.50;91.90;;;;;;5061009;28;20212;-72
2022/06/09 02:04:51;;;;;;;4.90;2.23;;;20.50;91.80;;;;;;5069724;28;20216;-72
2022/06/09 02:07:19;;;;;;;4.97;2.97;;;20.50;91.60;;;;;;5083725;28;20240;-72
2022/06/09 02:09:47;;;;;;;10.50;2.70;;;20.50;91.50;;;;;;5081698;28;20701;-72
2022/06/09 02:12:17;;;;;;;5.90;2.57;;;20.50;91.40;;;;;;5067825;28;20820;-72
2022/06/09 02:14:48;;;;;;;4.70;2.10;;;20.50;91.20;;;;;;5081917;28;20197;-72
2022/06/09 02:17:16;;;;;;;4.57;1.90;;;20.50;91.10;;;;;;5069132;28;20236;-73
2022/06/09 02:19:46;;;;;;;1.67;1.57;;;20.50;91.00;;;;;;5067196;28;20208;-73
2022/06/09 02:22:13;;;;;;;4.90;1.70;;;20.40;90.90;;;;;;5062867;28;20208;-73
2022/06/09 02:24:40;;;;;;;2.67;1.90;;;20.40;90.90;;;;;;5073390;28;20208;-73
2022/06/09 02:27:09;;;;;;;2.43;1.83;;;20.40;90.80;;;;;;5060739;28;20221;-73
2022/06/09 02:29:37;;;;;;;6.40;1.87;;;20.40;90.90;;;;;;5074227;28;20222;-73
2022/06/09 02:32:04;;;;;;;3.40;1.30;;;20.30;90.80;;;;;;5080935;28;20204;-73
2022/06/09 02:34:31;;;;;;;2.27;1.40;;;20.30;90.70;;;;;;5062424;28;20223;-73
2022/06/09 02:36:58;;;;;;;4.70;2.07;;;20.30;90.60;;;;;;5085992;28;20699;-73
2022/06/09 02:39:25;;;;;;;5.57;1.63;;;20.30;90.60;;;;;;5087752;28;20197;-73
2022/06/09 02:41:52;;;;;;;6.73;1.60;;;20.30;90.90;;;;;;5078762;28;20205;-72
2022/06/09 02:44:19;;;;;;;3.03;1.53;;;20.30;90.90;;;;;;5083752;28;20216;-72
2022/06/09 02:46:46;;;;;;;4.80;1.60;;;20.30;90.90;;;;;;5050932;28;20231;-73
2022/06/09 02:49:14;;;;;;;5.63;1.80;;;20.20;90.70;;;;;;5083193;28;20215;-73
2022/06/09 02:51:42;;;;;;;2.23;1.50;;;20.20;90.60;;;;;;5083787;28;20205;-73
2022/06/09 02:54:12;;;;;;;5.67;1.80;;;20.20;90.60;;;;;;5085935;28;20207;-73
2022/06/09 02:56:42;;;;;;;5.80;1.50;;;20.20;90.70;;;;;;5019972;28;1262933;-73
2022/06/09 02:59:10;;;;;;;2.57;1.47;;;20.20;90.80;;;;;;5084908;28;20446;-73
2022/06/09 03:01:38;;;;;;;3.57;1.50;;;20.20;90.90;;;;;;5068270;28;20208;-73
2022/06/09 03:04:06;;;;;;;4.10;1.83;;;20.10;90.80;;;;;;5079607;28;20205;-73
2022/06/09 03:06:34;;;;;;;2.93;1.53;;;20.10;90.70;;;;;;5075130;28;20219;-73
2022/06/09 03:09:01;;;;;;;5.83;1.47;;;20.10;90.60;;;;;;5072865;28;20203;-73
2022/06/09 03:11:28;;;;;;;6.50;1.80;;;20.10;90.80;;;;;;5073033;28;20200;-73
2022/06/09 03:13:56;;;;;;;5.07;1.53;;;20.10;90.90;;;;;;5082510;28;20199;-73
2022/06/09 03:16:23;;;;;;;4.73;2.03;;;20.10;90.90;;;;;;5082784;28;20286;-73
2022/06/09 03:18:50;;;;;;;3.67;1.70;;;20.10;90.90;;;;;;5086410;28;20200;-73
2022/06/09 03:21:17;;;;;;;1.93;1.50;;;20.10;90.90;;;;;;5065232;28;20201;-73
2022/06/09 03:23:44;;;;;;;3.57;1.53;;;20.10;90.80;;;;;;5086733;28;20238;-73
2022/06/09 03:26:12;;;;;;;3.63;1.57;;;20.00;90.90;;;;;;5066156;28;20215;-73
2022/06/09 03:28:40;;;;;;;3.93;2.10;;;20.10;90.90;;;;;;5073481;28;20235;-72
2022/06/09 03:31:07;;;;;;;4.63;1.80;;;20.00;91.00;;;;;;5079179;28;20228;-72
2022/06/09 03:33:35;;;;;;;12.30;2.57;;;20.00;91.10;;;;;;5070912;28;20250;-72
2022/06/09 03:36:03;;;;;;;14.10;2.47;;;20.00;91.30;;;;;;5085545;28;20610;-72
2022/06/09 03:38:30;;;;;;;7.63;1.90;;;20.00;91.30;;;;;;5049064;28;20203;-72
2022/06/09 03:40:57;;;;;;;9.93;2.30;;;20.00;91.40;;;;;;5069350;28;20312;-72
2022/06/09 03:43:24;;;;;;;7.27;2.17;;;20.00;91.30;;;;;;5071287;28;20196;-72
2022/06/09 03:45:52;;;;;;;4.20;1.97;;;19.90;90.90;;;;;;5087415;28;20209;-73
2022/06/09 03:48:19;;;;;;;5.03;2.40;;;19.90;90.70;;;;;;5076786;28;21585;-73
2022/06/09 03:50:46;;;;;;;4.20;1.67;;;19.80;90.80;;;;;;5089544;28;20200;-73
2022/06/09 03:53:13;;;;;;;4.30;1.90;;;19.60;91.00;;;;;;5090932;28;20226;-73
2022/06/09 03:55:40;;;;;;;3.43;1.70;;;19.50;91.10;;;;;;5087602;28;20254;-75
2022/06/09 03:58:07;;;;;;;8.30;2.13;;;19.40;91.00;;;;;;5088824;28;20204;-73
2022/06/09 04:00:34;;;;;;;5.07;1.60;;;19.30;91.20;;;;;;5079947;28;20558;-72
2022/06/09 04:03:02;;;;;;;5.07;2.27;;;19.30;91.40;;;;;;5087880;28;20290;-72
2022/06/09 04:05:31;;;;;;;6.43;2.20;;;19.20;91.60;;;;;;5085259;28;20194;-72
2022/06/09 04:07:59;;;;;;;7.37;1.80;;;19.20;91.70;;;;;;5084126;28;20220;-72
2022/06/09 04:10:30;;;;;;;5.70;1.80;;;19.20;91.80;;;;;;5091486;28;20223;-72
2022/06/09 04:12:58;;;;;;;4.13;1.70;;;19.30;91.90;;;;;;5066390;28;20211;-73
2022/06/09 04:15:25;;;;;;;5.43;2.27;;;19.30;92.10;;;;;;5088499;28;20197;-72
2022/06/09 04:17:52;;;;;;;5.87;2.20;;;19.40;92.30;;;;;;5081978;28;20286;-72
2022/06/09 04:20:24;;;;;;;5.20;1.93;;;19.50;92.50;;;;;;5085690;28;20208;-72
2022/06/09 04:22:52;;;;;;;9.07;2.03;;;19.50;92.50;;;;;;5091068;28;20203;-73
2022/06/09 04:25:20;;;;;;;6.30;2.13;;;19.60;92.50;;;;;;5082156;28;20296;-72
2022/06/09 04:27:48;;;;;;;6.80;2.20;;;19.60;92.50;;;;;;5088289;28;20220;-72
2022/06/09 04:30:16;;;;;;;11.00;2.50;;;19.70;92.50;;;;;;5090990;28;20203;-72
2022/06/09 04:32:51;;;;;;;4.07;2.47;;;19.70;92.50;;;;;;5084092;28;20204;-72
2022/06/09 04:35:19;;;;;;;5.97;1.97;;;19.80;92.40;;;;;;5067207;28;20204;-72
2022/06/09 04:38:01;;;;;;;3.87;2.47;;;19.90;92.30;;;;;;5071090;28;20212;-72
2022/06/09 04:40:30;;;;;;;4.13;2.00;;;19.90;92.20;;;;;;5068001;28;20328;-72
2022/06/09 04:42:57;;;;;;;8.43;2.80;;;19.90;92.10;;;;;;5085787;28;20199;-72
2022/06/09 04:45:24;;;;;;;4.50;2.20;;;19.90;92.10;;;;;;5086790;28;20718;-72
2022/06/09 04:47:52;;;;;;;6.83;2.47;;;19.90;92.10;;;;;;5077191;28;20230;-72
2022/06/09 04:50:19;;;;;;;9.63;2.50;;;20.00;92.10;;;;;;5089326;28;20235;-72
2022/06/09 04:52:47;;;;;;;4.80;2.23;;;20.00;92.00;;;;;;5067761;28;21046;-73
2022/06/09 04:55:15;;;;;;;9.83;2.43;;;20.00;91.80;;;;;;5050805;28;20245;-73
2022/06/09 04:57:42;;;;;;;4.30;2.63;;;20.10;91.80;;;;;;5061978;28;20198;-73
2022/06/09 05:00:12;;;;;;;13.57;3.67;;;20.10;91.70;;;;;;5057772;28;20539;-73
2022/06/09 05:02:39;;;;;;;4.60;2.37;;;20.10;91.70;;;;;;5035039;28;20218;-73
2022/06/09 05:05:07;;;;;;;10.90;2.60;;;20.20;91.80;;;;;;5066224;28;20223;-73
2022/06/09 05:07:34;;;;;;;12.77;2.47;;;20.20;91.80;;;;;;5042687;28;20232;-73
2022/06/09 05:10:01;;;;;;;7.87;2.53;;;20.20;91.70;;;;;;5061515;28;20205;-73
2022/06/09 05:12:29;;;;;;;6.37;2.00;;;20.20;91.80;;;;;;5045710;28;20217;-73
2022/06/09 05:15:03;;;;;;;6.70;2.20;;;20.30;91.80;;;;;;5037247;28;20215;-73
2022/06/09 05:17:30;;;;;;;7.63;1.77;;;20.30;91.70;;;;;;5068463;28;20201;-73
2022/06/09 05:19:58;;;;;;;9.50;2.40;;;20.30;91.40;;;;;;5072855;28;20266;-73
2022/06/09 05:22:25;;;;;;;11.03;2.60;;;20.40;91.40;;;;;;5034973;28;20266;-73
2022/06/09 05:24:52;;;;;;;4.60;2.30;;;20.40;91.50;;;;;;5035276;28;20255;-72
2022/06/09 05:27:21;;;;;;;6.50;2.50;;;20.40;91.60;;;;;;5051559;28;20236;-73
2022/06/09 05:29:48;;;;;;;9.10;2.43;;;20.50;91.70;;;;;;5048345;28;20610;-73
2022/06/09 05:32:15;;;;;;;10.57;2.30;;;20.50;91.80;;;;;;5066873;28;20206;-73
2022/06/09 05:34:42;;;;;;;5.63;2.53;;;20.50;91.80;;;;;;5064839;28;20213;-73
2022/06/09 05:37:09;;;;;;;8.87;2.40;;;20.60;91.90;;;;;;5062886;28;20198;-73
2022/06/09 05:45:10;;;;;;;10.50;2.63;;;20.80;91.40;;;;;;5047221;28;20205;-73
2022/06/09 05:47:38;;;;;;;8.53;2.73;;;20.80;91.30;;;;;;5049494;28;20304;-73
2022/06/09 05:50:06;;;;;;;11.03;2.70;;;20.90;91.20;;;;;;5048124;28;20263;-73
2022/06/09 05:52:34;;;;;;;5.93;2.47;;;21.00;91.20;;;;;;5049675;28;20754;-73
2022/06/09 05:55:02;;;;;;;7.53;2.50;;;21.00;91.20;;;;;;5052447;28;20243;-73
2022/06/09 05:57:30;;;;;;;6.40;2.13;;;21.10;90.80;;;;;;5048913;28;20280;-73
2022/06/09 05:59:57;;;;;;;5.30;2.77;;;21.10;90.30;;;;;;5053220;28;20304;-73
2022/06/09 06:02:26;;;;;;;6.40;2.63;;;21.10;90.10;;;;;;5063743;28;20281;-73
2022/06/09 06:04:53;;;;;;;7.83;2.20;;;21.10;90.60;;;;;;5045738;28;20275;-73
2022/06/09 06:07:21;;;;;;;3.63;2.23;;;21.10;90.50;;;;;;5052790;28;20237;-73
2022/06/09 06:09:48;;;;;;;10.70;2.33;;;21.30;90.40;;;;;;5047765;28;20252;-73
2022/06/09 06:12:15;;;;;;;5.17;2.27;;;21.40;90.60;;;;;;5037917;28;20255;-73
2022/06/09 06:14:42;;;;;;;2.47;2.27;;;21.60;90.20;;;;;;5063955;28;20196;-73
2022/06/09 06:17:10;;;;;;;5.00;3.67;;;21.80;88.20;;;;;;5063885;28;20191;-73
2022/06/09 06:19:37;;;;;;;6.40;4.17;;;21.90;86.70;;;;;;5043228;28;20306;-73
2022/06/09 06:22:08;;;;;;;10.07;4.57;;;22.00;85.90;;;;;;5064604;28;20245;-73
2022/06/09 06:24:35;;;;;;;4.77;3.83;;;22.10;85.50;;;;;;5045428;28;20198;-72
2022/06/09 06:27:03;;;;;;;5.40;4.70;;;22.20;85.10;;;;;;5066281;28;20190;-73
2022/06/09 06:29:48;;;;;;;6.30;5.70;;;22.30;85.00;;;;;;5061299;28;20530;-73
2022/06/09 06:32:16;;;;;;;9.83;6.30;;;22.40;84.40;;;;;;5047961;28;20804;-73
2022/06/09 06:34:43;;;;;;;8.23;5.70;;;22.60;84.20;;;;;;5066788;28;20206;-73
2022/06/09 06:37:10;;;;;;;5.43;3.53;;;22.70;84.50;;;;;;5053957;28;20202;-73
2022/06/09 06:39:37;;;;;;;5.17;4.77;;;22.80;83.10;;;;;;5061902;28;20210;-73
2022/06/09 06:42:04;;;;;;;5.30;4.10;;;22.90;82.50;;;;;;5052949;28;20201;-73
2022/06/09 06:44:35;;;;;;;4.37;3.60;;;23.10;82.90;;;;;;5030506;28;20194;-73
2022/06/09 06:47:03;;;;;;;5.53;3.70;;;23.20;80.50;;;;;;5025635;28;20538;-73
2022/06/09 06:49:30;;;;;;;4.20;3.80;;;23.20;80.50;;;;;;5063965;28;20222;-73
2022/06/09 06:51:57;;;;;;;4.53;3.13;;;23.40;79.20;;;;;;5046103;28;20204;-73
2022/06/09 06:54:24;;;;;;;4.67;3.67;;;23.40;79.20;;;;;;5066225;28;20217;-73
2022/06/09 06:56:51;;;;;;;10.37;4.13;;;23.60;78.30;;;;;;5082431;28;20267;-73
2022/06/09 06:59:18;;;;;;;8.27;4.33;;;23.60;78.40;;;;;;5081626;28;20208;-73
2022/06/09 07:01:45;;;;;;;6.43;4.23;;;23.70;78.80;;;;;;5048076;28;20214;-73
2022/06/09 07:04:13;;;;;;;3.90;2.90;;;23.80;77.00;;;;;;5085752;28;20229;-74
2022/06/09 07:06:40;;;;;;;4.37;3.00;;;23.90;77.00;;;;;;5082570;28;20205;-74
2022/06/09 07:09:07;;;;;;;5.87;2.63;;;23.90;74.80;;;;;;5064852;28;20308;-74
2022/06/09 07:11:34;;;;;;;6.93;3.00;;;23.90;74.80;;;;;;5073599;28;20201;-73
2022/06/09 07:14:01;;;;;;;6.10;3.00;;;23.90;74.10;;;;;;5085842;28;20251;-74
2022/06/09 07:16:28;;;;;;;4.20;2.20;;;23.90;75.30;;;;;;5063810;28;20198;-74
2022/06/09 07:19:12;;;;;;;1.87;1.30;;;23.80;74.80;;;;;;5068813;28;20216;-74
2022/06/09 07:21:39;;;;;;;2.90;1.40;;;23.80;71.70;;;;;;5072893;28;20648;-74
2022/06/09 07:24:07;;;;;;;1.20;1.10;;;23.90;73.60;;;;;;5080870;28;20636;-74
2022/06/09 07:26:34;;;;;;;2.90;1.20;;;24.00;71.70;;;;;;5087489;28;20527;-74
2022/06/09 07:29:01;;;;;;;0.97;0.97;;;24.10;68.10;;;;;;5065686;28;20263;-74
2022/06/09 07:31:29;;;;;;;2.40;1.07;;;24.00;68.60;;;;;;5081960;28;20862;-74
2022/06/09 07:33:57;;;;;;;0.70;0.70;;;24.00;68.90;;;;;;5082332;28;20194;-74
2022/06/09 07:36:26;;;;;;;3.43;0.80;;;24.10;67.70;;;;;;5086108;28;20189;-73
2022/06/09 07:38:53;;;;;;;0.63;0.30;;;24.10;67.30;;;;;;5080817;28;20629;-74
2022/06/09 07:41:21;;;;;;;0.40;0.40;;;24.20;67.30;;;;;;5082217;28;20202;-73
2022/06/09 07:44:00;;;;;;;2.63;0.43;;;24.30;66.20;;;;;;5067277;28;20329;-74
2022/06/09 07:46:28;;;;;;;0.50;0.40;;;24.40;64.40;;;;;;5073346;28;20198;-74
2022/06/09 07:48:57;;;;;;;2.33;0.70;;;24.30;65.00;;;;;;5072211;28;20311;-74
2022/06/09 07:51:25;;;;;;;0.60;0.60;;;24.20;64.30;;;;;;5070229;28;20227;-74
2022/06/09 07:53:53;;;;;;;1.10;1.00;;;24.20;66.00;;;;;;5083447;28;20201;-74
2022/06/09 07:56:20;;;;;;;3.83;1.20;;;24.10;68.10;;;;;;5060357;28;20661;-74
2022/06/09 07:58:48;;;;;;;1.10;1.00;;;24.10;69.00;;;;;;5084073;28;20701;-74
2022/06/09 08:01:17;;;;;;;1.07;1.00;;;24.10;67.70;;;;;;5066855;28;20202;-73
2022/06/09 08:03:44;;;;;;;3.07;1.23;;;24.20;68.30;;;;;;5067002;28;20212;-73
2022/06/09 08:06:12;;;;;;;2.47;1.33;;;24.30;68.00;;;;;;5061956;28;20220;-73
2022/06/09 08:08:57;;;;;;;2.03;1.93;;;24.50;67.50;;;;;;5067957;28;20630;-73
2022/06/09 08:11:34;;;;;;;5.43;1.73;;;24.60;67.70;;;;;;5071904;28;20202;-73
2022/06/09 08:14:03;;;;;;;7.10;1.33;;;24.70;67.10;;;;;;5054824;28;20220;-74
2022/06/09 08:16:31;;;;;;;3.23;0.70;;;24.60;66.10;;;;;;5075058;28;20200;-74
2022/06/09 08:18:59;;;;;;;1.47;0.90;;;24.60;65.50;;;;;;5075163;28;20237;-73
2022/06/09 08:21:27;;;;;;;3.50;0.67;;;24.60;67.20;;;;;;5073037;28;20190;-73
2022/06/09 08:24:13;;;;;;;0.77;0.53;;;24.60;63.00;;;;;;5084975;28;20189;-73
2022/06/09 08:26:41;;;;;;;0.80;0.77;;;24.80;65.40;;;;;;5064047;28;20214;-73
2022/06/09 08:29:08;;;;;;;1.80;0.60;;;24.80;63.70;;;;;;5071727;28;20307;-73
2022/06/09 08:31:35;;;;;;;1.10;0.77;;;25.00;63.60;;;;;;5074381;28;20272;-72
2022/06/09 08:34:03;;;;;;;1.27;0.90;;;25.00;64.10;;;;;;5087396;28;20193;-73
2022/06/09 08:36:30;;;;;;;1.57;0.50;;;25.10;62.00;;;;;;5072905;28;20260;-73
2022/06/09 08:38:57;;;;;;;1.00;0.93;;;25.10;61.80;;;;;;5075966;28;20205;-73
2022/06/09 08:41:27;;;;;;;0.60;0.60;;;25.10;62.10;;;;;;5075140;28;20221;-73
2022/06/09 08:44:27;;;;;;;2.63;0.70;;;25.20;62.20;;;;;;5088660;28;20263;-73
2022/06/09 08:47:08;;;;;;;0.77;0.70;;;25.20;61.00;;;;;;5068076;28;20224;-73
2022/06/09 08:50:03;;;;;;;1.00;0.47;;;25.20;61.10;;;;;;5065031;28;20309;-73
2022/06/09 08:52:58;;;;;;;0.93;0.80;;;25.20;60.00;;;;;;5081411;28;20223;-71
2022/06/09 08:55:28;;;;;;;0.57;0.57;;;25.30;59.90;;;;;;5083215;28;20235;-71
2022/06/09 08:58:09;;;;;;;0.60;0.47;;;25.40;60.60;;;;;;5073809;28;20258;-71
2022/06/09 09:00:41;;;;;;;1.60;0.73;;;25.60;58.40;;;;;;5078209;28;20193;-73
2022/06/09 09:03:23;;;;;;;0.60;0.60;;;25.80;57.20;;;;;;5087317;28;20199;-73
2022/06/09 09:06:12;;;;;;;0.50;0.30;;;25.90;57.90;;;;;;5062442;28;20202;-73
2022/06/09 09:08:40;;;;;;;0.53;0.40;;;26.00;53.60;;;;;;5087591;28;20668;-72
2022/06/09 09:11:07;;;;;;;0.67;0.67;;;26.10;54.50;;;;;;5073958;28;20227;-73
2022/06/09 09:14:14;;;;;;;0.10;0.10;;;26.10;56.00;;;;;;5072295;28;20292;-73
2022/06/09 09:17:18;;;;;;;0.30;0.30;;;26.20;54.10;;;;;;5061470;28;20213;-74
2022/06/09 09:19:57;;;;;;;0.20;0.20;;;26.30;54.10;;;;;;5065978;28;20201;-74
2022/06/09 09:23:08;;;;;;;0.27;0.27;;;26.30;54.30;;;;;;5082892;28;20563;-72
2022/06/09 09:25:52;;;;;;;0.80;0.40;;;26.50;55.10;;;;;;5033891;28;20288;-73
2022/06/09 09:28:51;;;;;;;0.30;0.27;;;26.60;54.00;;;;;;5078706;28;20241;-73
2022/06/09 09:31:25;;;;;;;0.40;0.40;;;26.60;54.40;;;;;;5082704;28;20666;-73
2022/06/09 09:33:54;;;;;;;1.53;0.30;;;26.80;54.90;;;;;;5058137;28;20238;-73
2022/06/09 09:36:26;;;;;;;1.23;0.47;;;26.80;51.30;;;;;;5074802;28;20304;-73
2022/06/09 09:39:10;;;;;;;1.17;0.20;;;26.70;51.80;;;;;;5073066;28;20299;-73
2022/06/09 09:41:39;;;;;;;0.30;0.20;;;26.60;51.00;;;;;;5071843;28;20210;-74
2022/06/09 09:44:19;;;;;;;2.20;0.40;;;26.60;51.50;;;;;;5063542;28;20301;-74
2022/06/09 09:46:56;;;;;;;0.60;0.40;;;26.50;52.10;;;;;;5062852;28;20197;-73
2022/06/09 09:49:39;;;;;;;1.00;0.40;;;26.40;51.50;;;;;;5082764;28;20319;-74
2022/06/09 09:52:30;;;;;;;0.40;0.40;;;26.30;51.90;;;;;;5085493;28;20217;-75
2022/06/09 09:54:58;;;;;;;0.27;0.27;;;26.30;52.10;;;;;;5081532;28;20306;-74
2022/06/09 09:57:28;;;;;;;0.53;0.30;;;26.40;52.90;;;;;;5072655;28;20204;-75
2022/06/09 09:59:58;;;;;;;0.53;0.30;;;26.50;52.70;;;;;;5070025;28;20296;-74
2022/06/09 10:09:23;;;;;;;0.97;0.40;;;26.30;52.00;;;;;;5081213;28;20700;-74
2022/06/09 10:12:23;;;;;;;0.20;0.20;;;26.30;52.20;;;;;;5085793;28;20268;-74
2022/06/09 10:14:51;;;;;;;0.40;0.40;;;26.30;54.50;;;;;;5064761;28;20213;-75
2022/06/09 10:17:36;;;;;;;0.47;0.30;;;26.20;52.30;;;;;;5084141;28;20190;-74
2022/06/09 10:20:32;;;;;;;0.47;0.30;;;26.20;52.70;;;;;;5082881;28;20185;-74
2022/06/09 10:23:15;;;;;;;0.60;0.40;;;26.50;54.50;;;;;;5064760;28;20284;-75
2022/06/09 10:26:02;;;;;;;3.30;0.50;;;26.80;53.30;;;;;;5065785;28;20303;-74
2022/06/09 10:28:35;;;;;;;0.20;0.20;;;27.10;53.20;;;;;;5083973;28;20229;-73
2022/06/09 10:31:45;;;;;;;0.40;0.40;;;27.30;50.50;;;;;;5086986;28;20208;-74
2022/06/09 10:34:16;;;;;;;0.43;0.43;;;27.30;50.50;;;;;;5083129;28;20202;-74
2022/06/09 10:36:54;;;;;;;0.20;0.20;;;27.40;52.50;;;;;;5073546;28;20653;-75
2022/06/09 10:39:36;;;;;;;1.70;0.30;;;27.50;49.10;;;;;;5086835;28;20607;-74
2022/06/09 10:42:29;;;;;;;0.10;0.10;;;27.60;46.30;;;;;;5073108;28;20207;-74
2022/06/09 10:45:15;;;;;;;0.83;0.30;;;27.50;46.90;;;;;;5085266;28;20767;-73
2022/06/09 10:57:23;;;;;;;0.30;0.30;;;27.40;46.80;;;;;;5081967;28;20267;-74
2022/06/09 11:00:00;;;;;;;0.37;0.27;;;27.50;48.40;;;;;;5085703;28;20229;-74
2022/06/09 11:02:32;;;;;;;0.43;0.27;;;27.50;46.00;;;;;;5074993;28;20200;-75
2022/06/09 11:05:01;;;;;;;0.30;0.30;;;27.40;47.90;;;;;;5064529;28;20213;-75
2022/06/09 11:07:40;;;;;;;1.83;0.20;;;27.30;48.80;;;;;;5068113;28;20201;-74
2022/06/09 11:10:29;;;;;;;0.20;0.20;;;27.30;49.10;;;;;;5071035;28;20228;-74
2022/06/09 11:13:13;;;;;;;1.60;0.27;;;27.50;49.40;;;;;;5086491;28;20220;-73
2022/06/09 11:15:52;;;;;;;1.37;0.20;;;27.60;47.70;;;;;;5087503;28;20228;-75
2022/06/09 11:18:55;;;;;;;1.33;0.37;;;27.50;45.70;;;;;;5079498;28;20224;-74
2022/06/09 11:21:31;;;;;;;0.13;0.13;;;27.40;45.70;;;;;;5081264;28;20212;-73
2022/06/09 11:24:12;;;;;;;2.17;0.40;;;27.20;46.50;;;;;;5072488;28;20232;-73
2022/06/09 11:27:09;;;;;;;4.93;0.43;;;27.00;46.90;;;;;;5086609;28;20253;-74
2022/06/09 11:29:59;;;;;;;3.67;0.50;;;26.90;45.50;;;;;;5068994;28;20235;-73
2022/06/09 11:32:52;;;;;;;2.30;0.40;;;26.60;47.70;;;;;;5062889;28;20221;-74
2022/06/09 11:35:31;;;;;;;0.20;0.20;;;26.60;47.20;;;;;;5083362;28;20212;-74
2022/06/09 11:38:10;;;;;;;2.93;0.73;;;26.60;47.40;;;;;;5066876;28;20200;-73
2022/06/09 11:40:43;;;;;;;1.60;0.20;;;26.60;47.80;;;;;;5070915;28;20198;-74
2022/06/09 11:43:29;;;;;;;0.90;0.70;;;26.60;48.80;;;;;;5074827;28;20659;-73
2022/06/09 11:46:01;;;;;;;2.53;1.10;;;26.60;47.90;;;;;;5072108;28;20223;-73
2022/06/09 11:48:42;;;;;;;0.53;0.40;;;26.60;49.40;;;;;;5085547;28;20206;-73
2022/06/09 11:51:10;;;;;;;0.90;0.40;;;26.90;44.20;;;;;;5080308;28;20202;-73
2022/06/09 11:53:47;;;;;;;8.00;0.43;;;26.90;43.50;;;;;;5081028;28;20195;-73
2022/06/09 11:56:40;;;;;;;1.30;0.30;;;26.70;43.50;;;;;;5064009;28;20698;-74
2022/06/09 11:59:33;;;;;;;0.97;0.33;;;26.30;43.70;;;;;;5033112;28;20216;-74
2022/06/09 12:02:14;;;;;;;4.33;0.83;;;25.90;44.50;;;;;;5036383;28;20651;-74
2022/06/09 12:04:46;;;;;;;3.97;0.40;;;25.40;45.80;;;;;;5070643;28;20228;-74
2022/06/09 12:07:26;;;;;;;1.53;0.40;;;25.10;47.00;;;;;;5057927;28;20288;-73
2022/06/09 12:10:47;;;;;;;2.90;0.40;;;24.80;47.10;;;;;;5050127;28;20283;-74
2022/06/09 12:13:27;;;;;;;1.90;0.70;;;24.70;47.20;;;;;;4983189;28;20331;-75
2022/06/09 12:16:05;;;;;;;0.83;0.43;;;24.70;49.40;;;;;;5062811;28;20200;-75
2022/06/09 12:18:35;;;;;;;0.63;0.57;;;24.90;48.60;;;;;;5053798;28;20213;-75
2022/06/09 12:21:09;;;;;;;1.37;0.73;;;25.00;48.80;;;;;;5063877;28;20207;-74
2022/06/09 12:24:14;;;;;;;1.33;0.40;;;25.20;48.30;;;;;;5064546;28;20671;-74
2022/06/09 12:26:44;;;;;;;2.03;0.50;;;25.20;49.80;;;;;;5066906;28;20210;-73
2022/06/09 12:29:34;;;;;;;2.30;0.90;;;25.30;48.50;;;;;;5067321;28;20215;-74
2022/06/09 12:32:10;;;;;;;0.70;0.70;;;25.30;48.30;;;;;;5071663;28;20289;-74
2022/06/09 12:34:51;;;;;;;0.30;0.30;;;25.50;49.30;;;;;;5047508;28;20256;-74
2022/06/09 12:37:22;;;;;;;3.30;0.80;;;25.70;49.10;;;;;;5054619;28;20205;-74
2022/06/09 12:40:01;;;;;;;13.47;11.90;;;26.00;47.40;;;;;;5049197;28;20207;-74
2022/06/09 12:42:46;;;;;;;0.50;0.50;;;26.20;47.30;;;;;;5065568;28;20556;-73
2022/06/09 12:45:27;;;;;;;34.73;20.77;;;26.30;47.60;;;;;;5065254;28;20207;-73
2022/06/09 12:48:01;;;;;;;2.40;1.00;;;26.50;47.00;;;;;;5052522;28;21672;-72
2022/06/09 12:50:52;;;;;;;1.73;1.40;;;26.60;46.00;;;;;;5063681;28;20253;-72
2022/06/09 12:53:23;;;;;;;0.30;0.30;;;26.70;44.70;;;;;;5047144;28;20233;-72
2022/06/09 12:56:00;;;;;;;0.33;0.33;;;26.80;46.30;;;;;;5073260;28;20604;-72
2022/06/09 12:58:36;;;;;;;12.63;6.63;;;27.00;46.20;;;;;;5087295;28;20288;-72
2022/06/09 13:01:11;;;;;;;2.33;0.10;;;27.10;44.80;;;;;;5077330;28;20214;-73
2022/06/09 13:03:47;;;;;;;0.60;0.60;;;27.30;43.70;;;;;;5068007;28;20202;-73
2022/06/09 13:06:29;;;;;;;0.93;0.30;;;27.50;44.60;;;;;;5090204;28;20209;-73
2022/06/09 13:09:17;;;;;;;0.30;0.20;;;27.50;45.30;;;;;;5086254;28;20207;-73
2022/06/09 13:14:44;;;;;;;0.30;0.30;;;27.30;44.10;;;;;;5088981;28;20316;-73
2022/06/09 13:17:25;;;;;;;0.57;0.10;;;27.40;44.60;;;;;;5082397;28;20193;-73
2022/06/09 13:20:02;;;;;;;2.40;0.57;;;27.40;42.70;;;;;;5066008;28;20205;-72
2022/06/09 13:22:33;;;;;;;0.30;0.17;;;27.40;44.70;;;;;;5076890;28;20211;-73
2022/06/09 13:25:01;;;;;;;0.40;0.20;;;27.40;43.60;;;;;;5067166;28;20239;-73
2022/06/09 13:27:31;;;;;;;1.40;0.40;;;27.40;43.20;;;;;;5071939;28;20198;-72
2022/06/09 13:30:28;;;;;;;11.63;1.00;;;27.30;43.20;;;;;;5089351;28;20238;-73
2022/06/09 13:32:56;;;;;;;5.77;0.40;;;27.20;43.50;;;;;;5083955;28;20205;-72
2022/06/09 13:35:43;;;;;;;0.17;0.17;;;27.10;43.50;;;;;;5084226;28;20307;-73
2022/06/09 13:38:17;;;;;;;0.67;0.40;;;26.90;42.60;;;;;;5076637;28;20260;-72
2022/06/09 13:40:55;;;;;;;7.10;0.57;;;26.70;42.20;;;;;;5074444;28;20209;-73
2022/06/09 13:43:36;;;;;;;6.60;0.50;;;26.50;43.00;;;;;;5071835;28;20217;-73